createdAt,value
2022-08-11T00:00:37.501Z,23.6
2022-08-11T00:01:38.811Z,23.5
2022-08-11T00:02:43.519Z,23.6
2022-08-11T00:03:45.258Z,23.6
2022-08-11T00:04:46.780Z,23.7
2022-08-11T00:05:48.066Z,23.7
2022-08-11T00:06:49.302Z,23.7
2022-08-11T00:07:51.130Z,23.7
2022-08-11T00:08:52.700Z,23.8
2022-08-11T00:09:54.547Z,23.8
2022-08-11T00:10:56.985Z,23.8
2022-08-11T00:11:59.704Z,23.8
2022-08-11T00:13:01.888Z,23.8
2022-08-11T00:14:02.897Z,23.8
2022-08-11T00:15:04.412Z,23.8
2022-08-11T00:16:05.418Z,23.8
2022-08-11T00:17:06.983Z,23.8
2022-08-11T00:18:10.642Z,23.7
2022-08-11T00:19:11.766Z,23.7
2022-08-11T00:20:18.282Z,23.7
2022-08-11T00:22:06.570Z,23.7
2022-08-11T00:23:07.825Z,23.7
2022-08-11T00:24:09.377Z,23.7
2022-08-11T00:25:11.175Z,23.7
2022-08-11T00:26:12.696Z,23.7
2022-08-11T00:27:14.880Z,23.6
2022-08-11T00:28:15.866Z,23.6
2022-08-11T00:29:17.431Z,23.6
2022-08-11T00:30:18.977Z,23.6
2022-08-11T00:31:20.787Z,23.5
2022-08-11T00:32:22.373Z,23.5
2022-08-11T00:33:46.163Z,23.4
2022-08-11T00:34:47.147Z,23.3
2022-08-11T00:35:58.109Z,23.3
2022-08-11T00:36:59.159Z,23.4
2022-08-11T00:38:00.169Z,23.3
2022-08-11T00:39:01.422Z,23.3
2022-08-11T00:40:02.796Z,23.2
2022-08-11T00:41:04.717Z,23.3
2022-08-11T00:42:05.957Z,23.3
2022-08-11T00:43:21.671Z,23.4
2022-08-11T00:44:30.829Z,23.4
2022-08-11T00:45:31.822Z,23.4
2022-08-11T00:46:33.131Z,23.3
2022-08-11T00:47:34.366Z,23.3
2022-08-11T00:48:35.949Z,23.3
2022-08-11T00:49:37.478Z,23.2
2022-08-11T00:50:39.341Z,23.3
2022-08-11T00:52:07.167Z,23.3
2022-08-11T00:53:08.157Z,23.2
2022-08-11T00:54:09.430Z,23.2
2022-08-11T00:55:10.733Z,23.2
2022-08-11T00:56:13.088Z,23.2
2022-08-11T00:57:39.526Z,23.2
2022-08-11T00:58:44.306Z,23.3
2022-08-11T00:59:52.368Z,23.3
2022-08-11T01:00:53.870Z,23.3
2022-08-11T01:01:54.984Z,23.3
2022-08-11T01:02:56.540Z,23.2
2022-08-11T01:03:58.737Z,23.2
2022-08-11T01:05:00.519Z,23.2
2022-08-11T01:06:08.263Z,23.1
2022-08-11T01:07:09.543Z,23
2022-08-11T01:08:11.103Z,23
2022-08-11T01:09:23.402Z,23
2022-08-11T01:10:25.945Z,22.9
2022-08-11T01:11:27.695Z,22.9
2022-08-11T01:12:30.313Z,22.9
2022-08-11T01:13:31.876Z,22.8
2022-08-11T01:14:35.234Z,22.8
2022-08-11T01:15:37.061Z,22.8
2022-08-11T01:16:41.527Z,22.9
2022-08-11T01:17:43.143Z,22.9
2022-08-11T01:18:44.909Z,22.9
2022-08-11T01:20:50.453Z,22.9
2022-08-11T01:21:51.459Z,23
2022-08-11T01:22:55.849Z,23.1
2022-08-11T01:23:57.156Z,23.1
2022-08-11T01:24:58.421Z,23.1
2022-08-11T01:25:59.411Z,23.1
2022-08-11T01:27:00.432Z,23.1
2022-08-11T01:28:01.413Z,23.2
2022-08-11T01:29:03.057Z,23.2
2022-08-11T01:30:04.601Z,23.2
2022-08-11T01:31:06.675Z,23.2
2022-08-11T01:32:09.026Z,23.3
2022-08-11T01:33:10.861Z,23.2
2022-08-11T01:34:11.853Z,23.2
2022-08-11T01:35:13.725Z,23
2022-08-11T01:36:15.538Z,23
2022-08-11T01:37:16.841Z,23
2022-08-11T01:38:18.156Z,22.9
2022-08-11T01:39:19.764Z,22.9
2022-08-11T01:40:20.981Z,22.9
2022-08-11T01:41:22.396Z,22.9
2022-08-11T01:42:23.941Z,23
2022-08-11T01:43:25.737Z,23
2022-08-11T01:44:26.716Z,23
2022-08-11T01:45:28.707Z,23
2022-08-11T01:46:30.494Z,23
2022-08-11T01:47:32.112Z,23
2022-08-11T01:48:33.339Z,23
2022-08-11T01:50:11.461Z,22.9
2022-08-11T01:51:18.000Z,22.9
2022-08-11T01:52:19.231Z,22.9
2022-08-11T01:53:36.582Z,22.9
2022-08-11T01:54:41.968Z,22.9
2022-08-11T01:55:44.026Z,22.8
2022-08-11T01:56:45.868Z,22.8
2022-08-11T01:57:47.714Z,22.7
2022-08-11T01:58:49.584Z,22.7
2022-08-11T01:59:51.927Z,22.6
2022-08-11T02:00:53.999Z,22.6
2022-08-11T02:01:55.632Z,22.5
2022-08-11T02:02:57.459Z,22.5
2022-08-11T02:03:58.454Z,22.5
2022-08-11T02:04:59.721Z,22.4
2022-08-11T02:06:00.729Z,22.4
2022-08-11T02:07:02.684Z,22.3
2022-08-11T02:08:04.246Z,22.3
2022-08-11T02:09:19.221Z,22.3
2022-08-11T02:10:38.790Z,22.2
2022-08-11T02:11:45.757Z,22.2
2022-08-11T02:12:53.317Z,22.1
2022-08-11T02:13:56.521Z,22.1
2022-08-11T02:15:06.327Z,22
2022-08-11T02:16:08.430Z,22
2022-08-11T02:17:09.939Z,21.9
2022-08-11T02:18:12.061Z,21.9
2022-08-11T02:19:13.924Z,21.9
2022-08-11T02:20:15.451Z,21.9
2022-08-11T02:21:18.843Z,21.9
2022-08-11T02:22:20.139Z,21.9
2022-08-11T02:24:08.460Z,21.8
2022-08-11T02:25:09.701Z,21.8
2022-08-11T02:26:10.979Z,21.8
2022-08-11T02:27:13.301Z,21.7
2022-08-11T02:28:14.570Z,21.7
2022-08-11T02:29:15.856Z,21.7
2022-08-11T02:30:17.141Z,21.6
2022-08-11T02:32:31.617Z,21.7
2022-08-11T02:33:37.181Z,21.6
2022-08-11T02:34:42.187Z,21.6
2022-08-11T02:35:43.599Z,21.7
2022-08-11T02:36:45.151Z,21.7
2022-08-11T02:37:46.663Z,21.7
2022-08-11T02:38:47.695Z,21.7
2022-08-11T02:39:51.804Z,21.7
2022-08-11T02:40:53.507Z,21.7
2022-08-11T02:41:54.783Z,21.6
2022-08-11T02:42:56.349Z,21.6
2022-08-11T02:43:57.340Z,21.5
2022-08-11T02:44:58.639Z,21.5
2022-08-11T02:46:00.560Z,21.5
2022-08-11T02:47:02.063Z,21.5
2022-08-11T02:48:03.719Z,21.5
2022-08-11T02:49:04.723Z,21.5
2022-08-11T02:50:08.635Z,21.5
2022-08-11T02:51:09.631Z,21.5
2022-08-11T02:52:10.861Z,21.4
2022-08-11T02:53:11.840Z,21.4
2022-08-11T02:54:13.115Z,21.4
2022-08-11T02:55:59.001Z,21.4
2022-08-11T02:57:00.351Z,21.4
2022-08-11T02:58:02.161Z,21.3
2022-08-11T02:59:03.446Z,21.3
2022-08-11T03:00:04.427Z,21.3
2022-08-11T03:01:05.438Z,21.2
2022-08-11T03:02:07.039Z,21.2
2022-08-11T03:03:08.889Z,21.1
2022-08-11T03:04:10.969Z,21.1
2022-08-11T03:05:12.437Z,21.1
2022-08-11T03:06:13.435Z,21.1
2022-08-11T03:07:30.321Z,21.1
2022-08-11T03:08:31.595Z,21.1
2022-08-11T03:09:32.601Z,21
2022-08-11T03:10:36.548Z,21
2022-08-11T03:11:38.109Z,20.9
2022-08-11T03:12:40.095Z,20.9
2022-08-11T03:13:41.098Z,21
2022-08-11T03:14:42.605Z,21
2022-08-11T03:15:45.482Z,21
2022-08-11T03:16:47.058Z,21
2022-08-11T03:17:53.544Z,21
2022-08-11T03:18:54.790Z,21
2022-08-11T03:19:55.818Z,21
2022-08-11T03:20:57.341Z,21
2022-08-11T03:22:07.482Z,21
2022-08-11T03:23:21.123Z,21
2022-08-11T03:24:22.400Z,21
2022-08-11T03:25:23.901Z,21
2022-08-11T03:26:24.905Z,21
2022-08-11T03:27:26.181Z,21
2022-08-11T03:28:27.667Z,21
2022-08-11T03:29:29.073Z,21
2022-08-11T03:30:30.865Z,21
2022-08-11T03:31:31.877Z,20.9
2022-08-11T03:32:33.554Z,20.9
2022-08-11T03:33:35.135Z,20.9
2022-08-11T03:34:36.400Z,20.9
2022-08-11T03:35:37.664Z,20.8
2022-08-11T03:37:19.229Z,20.8
2022-08-11T03:38:31.265Z,20.8
2022-08-11T03:39:32.410Z,20.8
2022-08-11T03:40:33.471Z,20.8
2022-08-11T03:42:10.550Z,20.9
2022-08-11T03:43:13.149Z,20.9
2022-08-11T03:44:15.835Z,21
2022-08-11T03:45:20.137Z,21
2022-08-11T03:46:23.271Z,20.9
2022-08-11T03:47:24.532Z,20.9
2022-08-11T03:48:25.510Z,20.9
2022-08-11T03:49:26.800Z,20.9
2022-08-11T03:50:28.632Z,20.9
2022-08-11T03:51:52.749Z,20.9
2022-08-11T03:52:53.984Z,21
2022-08-11T03:53:55.236Z,21
2022-08-11T03:54:57.306Z,21
2022-08-11T03:55:58.305Z,21
2022-08-11T03:57:01.830Z,21
2022-08-11T03:58:03.652Z,21
2022-08-11T03:59:05.235Z,20.9
2022-08-11T04:00:06.791Z,20.9
2022-08-11T04:01:08.351Z,20.9
2022-08-11T04:02:09.851Z,20.9
2022-08-11T04:03:10.845Z,20.9
2022-08-11T04:04:11.915Z,20.9
2022-08-11T04:05:13.477Z,20.9
2022-08-11T04:06:14.744Z,20.9
2022-08-11T04:07:18.344Z,20.9
2022-08-11T04:08:19.381Z,20.8
2022-08-11T04:09:20.925Z,20.7
2022-08-11T04:10:22.445Z,20.6
2022-08-11T04:11:23.454Z,20.6
2022-08-11T04:12:37.681Z,20.7
2022-08-11T04:13:38.691Z,20.6
2022-08-11T04:14:39.700Z,20.7
2022-08-11T04:15:40.769Z,20.8
2022-08-11T04:16:41.764Z,20.9
2022-08-11T04:17:43.607Z,20.9
2022-08-11T04:18:45.114Z,21
2022-08-11T04:19:46.644Z,21.1
2022-08-11T04:20:48.179Z,21.1
2022-08-11T04:21:49.538Z,21.1
2022-08-11T04:22:51.040Z,21.1
2022-08-11T04:24:40.353Z,21.2
2022-08-11T04:25:59.839Z,21.2
2022-08-11T04:27:13.269Z,21.3
2022-08-11T04:28:33.583Z,21.3
2022-08-11T04:30:12.489Z,21.3
2022-08-11T04:31:53.322Z,21.4
2022-08-11T04:32:54.543Z,21.5
2022-08-11T04:33:57.745Z,21.5
2022-08-11T04:34:59.383Z,21.5
2022-08-11T04:36:00.933Z,21.5
2022-08-11T04:37:03.457Z,21.6
2022-08-11T04:38:04.443Z,21.6
2022-08-11T04:39:05.423Z,21.7
2022-08-11T04:40:07.029Z,21.8
2022-08-11T04:41:08.059Z,21.8
2022-08-11T04:42:09.743Z,21.8
2022-08-11T04:43:11.329Z,21.8
2022-08-11T04:44:12.565Z,21.8
2022-08-11T04:45:14.561Z,21.8
2022-08-11T04:46:16.364Z,21.8
2022-08-11T04:47:18.471Z,21.7
2022-08-11T04:48:20.310Z,21.8
2022-08-11T04:49:34.619Z,21.8
2022-08-11T04:50:35.919Z,21.9
2022-08-11T04:51:37.480Z,21.9
2022-08-11T04:52:39.838Z,22
2022-08-11T04:53:42.179Z,22
2022-08-11T04:54:43.698Z,22
2022-08-11T04:55:45.130Z,22.1
2022-08-11T04:56:46.138Z,22.1
2022-08-11T04:57:48.005Z,22.2
2022-08-11T04:58:49.287Z,22.3
2022-08-11T04:59:51.111Z,22.3
2022-08-11T05:00:57.743Z,22.3
2022-08-11T05:01:59.515Z,22.4
2022-08-11T05:03:01.066Z,22.4
2022-08-11T05:04:02.319Z,22.4
2022-08-11T05:05:04.225Z,22.5
2022-08-11T05:06:05.488Z,22.5
2022-08-11T05:07:07.307Z,22.4
2022-08-11T05:08:08.285Z,22.4
2022-08-11T05:09:09.355Z,22.5
2022-08-11T05:10:10.549Z,22.5
2022-08-11T05:11:12.617Z,22.5
2022-08-11T05:12:14.158Z,22.5
2022-08-11T05:13:15.729Z,22.5
2022-08-11T05:14:17.835Z,22.5
2022-08-11T05:15:24.350Z,22.5
2022-08-11T05:16:26.140Z,22.5
2022-08-11T05:17:27.371Z,22.6
2022-08-11T05:18:28.971Z,22.7
2022-08-11T05:19:30.209Z,22.7
2022-08-11T05:20:31.440Z,22.8
2022-08-11T05:21:45.978Z,22.8
2022-08-11T05:22:47.583Z,22.9
2022-08-11T05:23:48.590Z,22.9
2022-08-11T05:24:49.582Z,22.9
2022-08-11T05:26:50.523Z,23
2022-08-11T05:27:52.454Z,23.1
2022-08-11T05:28:53.982Z,23.1
2022-08-11T05:29:54.983Z,23.1
2022-08-11T05:30:56.301Z,23.1
2022-08-11T05:31:57.829Z,23.1
2022-08-11T05:33:03.055Z,23.1
2022-08-11T05:34:04.601Z,23.2
2022-08-11T05:35:06.138Z,23.2
2022-08-11T05:36:08.531Z,23.3
2022-08-11T05:37:28.483Z,23.3
2022-08-11T05:38:29.473Z,23.4
2022-08-11T05:39:37.772Z,23.4
2022-08-11T05:40:38.966Z,23.5
2022-08-11T05:41:41.650Z,23.5
2022-08-11T05:42:44.386Z,23.5
2022-08-11T05:44:23.039Z,23.5
2022-08-11T05:45:24.323Z,23.6
2022-08-11T05:46:25.359Z,23.7
2022-08-11T05:47:26.598Z,23.7
2022-08-11T05:48:28.373Z,23.7
2022-08-11T05:49:33.320Z,23.8
2022-08-11T05:50:39.527Z,23.8
2022-08-11T05:52:14.420Z,23.8
2022-08-11T05:53:17.697Z,23.8
2022-08-11T05:54:30.126Z,23.9
2022-08-11T05:55:31.963Z,23.9
2022-08-11T05:56:33.297Z,23.9
2022-08-11T05:57:53.040Z,23.9
2022-08-11T05:58:55.143Z,24
2022-08-11T05:59:56.409Z,24
2022-08-11T06:00:57.939Z,24
2022-08-11T06:02:00.147Z,23.9
2022-08-11T06:03:01.600Z,23.9
2022-08-11T06:04:03.163Z,23.9
2022-08-11T06:05:04.791Z,23.9
2022-08-11T06:06:06.845Z,23.9
2022-08-11T06:07:08.642Z,24
2022-08-11T06:08:09.926Z,24
2022-08-11T06:09:11.711Z,24
2022-08-11T06:10:13.829Z,23.9
2022-08-11T06:11:15.384Z,23.8
2022-08-11T06:12:17.481Z,23.9
2022-08-11T06:13:19.288Z,23.9
2022-08-11T06:14:20.777Z,23.9
2022-08-11T06:15:22.145Z,23.9
2022-08-11T06:16:23.941Z,24
2022-08-11T06:17:25.013Z,24.1
2022-08-11T06:18:26.839Z,24.1
2022-08-11T06:19:28.110Z,24
2022-08-11T06:20:30.732Z,24.1
2022-08-11T06:21:32.560Z,24.2
2022-08-11T06:22:34.234Z,24.2
2022-08-11T06:23:37.525Z,24.3
2022-08-11T06:24:39.576Z,24.4
2022-08-11T06:25:41.380Z,24.5
2022-08-11T06:27:14.384Z,24.5
2022-08-11T06:28:22.416Z,24.5
2022-08-11T06:29:57.983Z,24.6
2022-08-11T06:31:00.092Z,24.6
2022-08-11T06:32:01.391Z,24.7
2022-08-11T06:33:02.612Z,24.7
2022-08-11T06:34:04.888Z,24.8
2022-08-11T06:35:06.354Z,24.8
2022-08-11T06:36:07.882Z,24.8
2022-08-11T06:37:09.589Z,24.8
2022-08-11T06:38:10.851Z,24.8
2022-08-11T06:39:12.173Z,24.9
2022-08-11T06:40:14.070Z,24.9
2022-08-11T06:41:15.357Z,25
2022-08-11T06:42:16.889Z,25
2022-08-11T06:43:18.179Z,25
2022-08-11T06:44:20.004Z,25.1
2022-08-11T06:45:22.203Z,25.1
2022-08-11T06:46:29.351Z,25.2
2022-08-11T06:47:30.353Z,25.2
2022-08-11T06:48:31.329Z,25.3
2022-08-11T06:49:32.622Z,25.3
2022-08-11T06:50:33.620Z,25.3
2022-08-11T06:51:41.937Z,25.3
2022-08-11T06:52:43.549Z,25.3
2022-08-11T06:54:06.275Z,25.3
2022-08-11T06:55:08.079Z,25.3
2022-08-11T06:57:31.795Z,25.4
2022-08-11T06:58:33.413Z,25.3
2022-08-11T06:59:34.643Z,25.4
2022-08-11T07:00:35.887Z,25.5
2022-08-11T07:01:37.697Z,25.5
2022-08-11T07:02:38.868Z,25.5
2022-08-11T07:03:40.626Z,25.6
2022-08-11T07:04:42.142Z,25.7
2022-08-11T07:05:43.688Z,25.7
2022-08-11T07:06:51.883Z,25.7
2022-08-11T07:07:53.667Z,25.6
2022-08-11T07:08:54.892Z,25.5
2022-08-11T07:09:56.192Z,25.4
2022-08-11T07:10:59.085Z,25.4
2022-08-11T07:12:00.075Z,25.5
2022-08-11T07:13:02.508Z,25.6
2022-08-11T07:14:04.482Z,25.7
2022-08-11T07:15:05.477Z,25.8
2022-08-11T07:16:14.504Z,25.8
2022-08-11T07:17:15.497Z,25.8
2022-08-11T07:18:17.049Z,25.7
2022-08-11T07:19:18.552Z,25.6
2022-08-11T07:20:19.791Z,25.6
2022-08-11T07:22:04.615Z,25.7
2022-08-11T07:23:05.881Z,25.8
2022-08-11T07:24:06.898Z,25.9
2022-08-11T07:25:08.457Z,26
2022-08-11T07:26:10.026Z,26
2022-08-11T07:27:11.374Z,26.1
2022-08-11T07:28:13.131Z,26.2
2022-08-11T07:29:14.648Z,26.2
2022-08-11T07:30:16.464Z,26.2
2022-08-11T07:31:18.343Z,26.2
2022-08-11T07:32:19.606Z,26.1
2022-08-11T07:34:18.502Z,26.1
2022-08-11T07:35:20.154Z,26.3
2022-08-11T07:36:29.665Z,26.4
2022-08-11T07:37:31.254Z,26.4
2022-08-11T07:38:33.258Z,26.5
2022-08-11T07:39:36.819Z,26.4
2022-08-11T07:40:38.385Z,26.4
2022-08-11T07:41:39.882Z,26.4
2022-08-11T07:42:41.451Z,26.4
2022-08-11T07:43:42.992Z,26.5
2022-08-11T07:44:44.777Z,26.6
2022-08-11T07:45:46.068Z,26.7
2022-08-11T07:46:48.406Z,26.8
2022-08-11T07:47:50.512Z,26.8
2022-08-11T07:48:51.775Z,26.8
2022-08-11T07:49:53.584Z,26.8
2022-08-11T07:50:57.170Z,26.9
2022-08-11T07:51:59.220Z,27
2022-08-11T07:53:01.051Z,27
2022-08-11T07:54:19.428Z,27
2022-08-11T07:55:54.539Z,27.1
2022-08-11T07:58:20.358Z,27.2
2022-08-11T08:00:05.450Z,27.4
2022-08-11T08:01:23.410Z,27.4
2022-08-11T08:02:31.003Z,27.5
2022-08-11T08:03:32.576Z,27.5
2022-08-11T08:04:33.842Z,27.5
2022-08-11T08:05:34.862Z,27.6
2022-08-11T08:06:37.243Z,27.6
2022-08-11T08:07:40.219Z,27.6
2022-08-11T08:08:42.324Z,27.6
2022-08-11T08:09:43.372Z,27.5
2022-08-11T08:10:44.612Z,27.5
2022-08-11T08:11:46.603Z,27.6
2022-08-11T08:12:47.876Z,27.6
2022-08-11T08:13:51.406Z,27.6
2022-08-11T08:14:52.711Z,27.7
2022-08-11T08:15:54.782Z,27.7
2022-08-11T08:16:56.636Z,27.7
2022-08-11T08:18:28.234Z,27.8
2022-08-11T08:19:30.934Z,27.8
2022-08-11T08:20:32.185Z,27.8
2022-08-11T08:21:34.426Z,27.9
2022-08-11T08:22:48.431Z,27.9
2022-08-11T08:23:57.050Z,27.9
2022-08-11T08:24:59.105Z,27.9
2022-08-11T08:26:00.679Z,27.9
2022-08-11T08:27:02.506Z,27.9
2022-08-11T08:28:04.302Z,28
2022-08-11T08:29:06.379Z,28
2022-08-11T08:30:07.700Z,28
2022-08-11T08:31:09.322Z,28.1
2022-08-11T08:32:10.312Z,28.1
2022-08-11T08:33:11.590Z,28.2
2022-08-11T08:34:12.862Z,28.3
2022-08-11T08:35:14.467Z,28.3
2022-08-11T08:36:15.770Z,28.3
2022-08-11T08:37:48.391Z,28.4
2022-08-11T08:38:50.177Z,28.3
2022-08-11T08:39:52.523Z,28.3
2022-08-11T08:40:57.162Z,28.3
2022-08-11T08:41:58.503Z,28.3
2022-08-11T08:42:59.777Z,28.4
2022-08-11T08:44:42.262Z,28.5
2022-08-11T08:45:52.272Z,28.5
2022-08-11T08:46:53.826Z,28.5
2022-08-11T08:47:54.820Z,28.5
2022-08-11T08:48:55.824Z,28.5
2022-08-11T08:49:56.818Z,28.6
2022-08-11T08:50:58.403Z,28.6
2022-08-11T08:52:44.916Z,28.6
2022-08-11T08:53:59.095Z,28.7
2022-08-11T08:55:00.604Z,28.7
2022-08-11T08:56:02.441Z,28.8
2022-08-11T08:57:03.436Z,28.9
2022-08-11T08:58:04.992Z,28.9
2022-08-11T08:59:06.271Z,28.9
2022-08-11T09:00:19.323Z,28.9
2022-08-11T09:01:25.295Z,28.9
2022-08-11T09:02:35.730Z,29
2022-08-11T09:04:17.519Z,29
2022-08-11T09:05:22.293Z,29
2022-08-11T09:06:24.080Z,29
2022-08-11T09:07:25.419Z,29.1
2022-08-11T09:08:26.623Z,29.1
2022-08-11T09:09:28.220Z,29.1
2022-08-11T09:10:29.363Z,29.1
2022-08-11T09:11:31.167Z,29.1
2022-08-11T09:12:39.875Z,29.2
2022-08-11T09:13:41.468Z,29.3
2022-08-11T09:14:42.460Z,29.3
2022-08-11T09:15:43.688Z,29.3
2022-08-11T09:16:44.974Z,29.2
2022-08-11T09:17:46.262Z,29.2
2022-08-11T09:18:57.056Z,29.2
2022-08-11T09:19:59.890Z,29.2
2022-08-11T09:21:05.958Z,29.2
2022-08-11T09:22:06.941Z,29.2
2022-08-11T09:24:25.748Z,29.2
2022-08-11T09:25:28.316Z,29.3
2022-08-11T09:26:32.008Z,29.3
2022-08-11T09:27:33.735Z,29.4
2022-08-11T09:28:36.212Z,29.5
2022-08-11T09:29:41.001Z,29.5
2022-08-11T09:30:42.226Z,29.6
2022-08-11T09:31:43.530Z,29.6
2022-08-11T09:32:44.548Z,29.6
2022-08-11T09:33:45.612Z,29.5
2022-08-11T09:34:47.011Z,29.4
2022-08-11T09:35:48.474Z,29.4
2022-08-11T09:36:50.264Z,29.4
2022-08-11T09:37:57.734Z,29.4
2022-08-11T09:39:01.141Z,29.3
2022-08-11T09:40:04.792Z,29.3
2022-08-11T09:41:06.310Z,29.3
2022-08-11T09:42:23.982Z,29.4
2022-08-11T09:43:30.190Z,29.5
2022-08-11T09:44:31.553Z,29.5
2022-08-11T09:45:41.094Z,29.5
2022-08-11T09:46:42.134Z,29.6
2022-08-11T09:47:46.356Z,29.6
2022-08-11T09:48:47.650Z,29.6
2022-08-11T09:49:49.534Z,29.5
2022-08-11T09:50:50.526Z,29.5
2022-08-11T09:52:06.158Z,29.6
2022-08-11T09:54:02.777Z,29.6
2022-08-11T09:55:05.675Z,29.6
2022-08-11T09:56:07.051Z,29.6
2022-08-11T09:57:08.627Z,29.6
2022-08-11T09:58:10.486Z,29.6
2022-08-11T09:59:43.323Z,29.7
2022-08-11T10:00:46.607Z,29.8
2022-08-11T10:01:48.692Z,29.8
2022-08-11T10:02:49.943Z,29.9
2022-08-11T10:03:50.943Z,29.9
2022-08-11T10:04:52.219Z,30
2022-08-11T10:05:53.529Z,30
2022-08-11T10:06:56.260Z,30
2022-08-11T10:07:57.255Z,30
2022-08-11T10:08:59.040Z,30
2022-08-11T10:10:00.892Z,30
2022-08-11T10:11:02.887Z,29.9
2022-08-11T10:12:04.665Z,29.8
2022-08-11T10:14:35.453Z,29.8
2022-08-11T10:15:36.548Z,29.9
2022-08-11T10:16:38.534Z,30
2022-08-11T10:17:41.080Z,30
2022-08-11T10:18:42.380Z,30
2022-08-11T10:19:43.375Z,30.1
2022-08-11T10:21:02.674Z,30.2
2022-08-11T10:22:04.518Z,30.2
2022-08-11T10:23:06.574Z,30.2
2022-08-11T10:24:07.586Z,30.2
2022-08-11T10:25:08.634Z,30.3
2022-08-11T10:26:10.127Z,30.3
2022-08-11T10:27:11.894Z,30.3
2022-08-11T10:29:13.938Z,30.3
2022-08-11T10:30:17.207Z,30.3
2022-08-11T10:31:19.077Z,30.3
2022-08-11T10:32:31.857Z,30.3
2022-08-11T10:33:59.843Z,30.3
2022-08-11T10:35:01.701Z,30.3
2022-08-11T10:36:02.696Z,30.4
2022-08-11T10:37:16.839Z,30.4
2022-08-11T10:38:18.606Z,30.4
2022-08-11T10:39:20.638Z,30.4
2022-08-11T10:40:22.062Z,30.4
2022-08-11T10:41:23.334Z,30.4
2022-08-11T10:42:59.119Z,30.5
2022-08-11T10:44:04.571Z,30.5
2022-08-11T10:45:06.379Z,30.4
2022-08-11T10:46:07.900Z,30.4
2022-08-11T10:47:09.677Z,30.4
2022-08-11T10:48:16.192Z,30.3
2022-08-11T10:49:17.511Z,30.3
2022-08-11T10:50:19.094Z,30.3
2022-08-11T10:51:59.046Z,30.4
2022-08-11T10:53:00.404Z,30.5
2022-08-11T10:54:01.979Z,30.5
2022-08-11T10:55:04.187Z,30.5
2022-08-11T10:56:06.427Z,30.5
2022-08-11T10:57:07.434Z,30.5
2022-08-11T10:58:08.662Z,30.5
2022-08-11T10:59:10.000Z,30.5
2022-08-11T11:00:11.302Z,30.4
2022-08-11T11:01:13.059Z,30.4
2022-08-11T11:02:15.040Z,30.4
2022-08-11T11:03:24.438Z,30.5
2022-08-11T11:04:28.520Z,30.4
2022-08-11T11:05:35.334Z,30.4
2022-08-11T11:06:36.939Z,30.4
2022-08-11T11:07:45.433Z,30.3
2022-08-11T11:08:49.459Z,30.4
2022-08-11T11:09:53.720Z,30.4
2022-08-11T11:10:55.284Z,30.5
2022-08-11T11:11:57.216Z,30.4
2022-08-11T11:12:58.604Z,30.4
2022-08-11T11:14:04.218Z,30.5
2022-08-11T11:15:18.382Z,30.5
2022-08-11T11:16:19.698Z,30.5
2022-08-11T11:17:20.924Z,30.6
2022-08-11T11:18:22.211Z,30.6
2022-08-11T11:19:24.580Z,30.6
2022-08-11T11:20:48.014Z,30.6
2022-08-11T11:21:49.779Z,30.5
2022-08-11T11:22:51.879Z,30.3
2022-08-11T11:23:53.396Z,30.2
2022-08-11T11:24:54.939Z,30.1
2022-08-11T11:25:59.002Z,30.1
2022-08-11T11:27:00.924Z,30.2
2022-08-11T11:28:02.223Z,30.2
2022-08-11T11:29:03.222Z,30.2
2022-08-11T11:30:04.452Z,30.3
2022-08-11T11:31:05.449Z,30.4
2022-08-11T11:32:07.310Z,30.4
2022-08-11T11:33:09.351Z,30.5
2022-08-11T11:34:13.495Z,30.5
2022-08-11T11:35:15.501Z,30.5
2022-08-11T11:36:16.980Z,30.5
2022-08-11T11:37:18.573Z,30.5
2022-08-11T11:38:20.108Z,30.5
2022-08-11T11:39:21.587Z,30.6
2022-08-11T11:40:32.772Z,30.6
2022-08-11T11:41:34.194Z,30.5
2022-08-11T11:42:35.511Z,30.5
2022-08-11T11:43:36.773Z,30.6
2022-08-11T11:44:40.401Z,30.6
2022-08-11T11:45:42.820Z,30.6
2022-08-11T11:46:44.104Z,30.6
2022-08-11T11:47:45.674Z,30.6
2022-08-11T11:48:46.941Z,30.7
2022-08-11T11:49:48.985Z,30.7
2022-08-11T11:50:51.654Z,30.8
2022-08-11T11:51:59.875Z,30.8
2022-08-11T11:53:01.157Z,30.8
2022-08-11T11:54:02.725Z,30.8
2022-08-11T11:55:03.976Z,30.9
2022-08-11T11:56:04.990Z,30.9
2022-08-11T11:57:06.002Z,30.9
2022-08-11T11:58:08.003Z,30.8
2022-08-11T11:59:19.732Z,30.8
2022-08-11T12:00:20.991Z,30.8
2022-08-11T12:01:22.287Z,30.8
2022-08-11T12:02:23.284Z,30.8
2022-08-11T12:03:24.750Z,30.8
2022-08-11T12:04:25.872Z,30.8
2022-08-11T12:05:27.132Z,30.8
2022-08-11T12:06:28.941Z,30.8
2022-08-11T12:07:30.567Z,30.8
2022-08-11T12:08:32.123Z,30.8
2022-08-11T12:09:33.114Z,30.8
2022-08-11T12:10:34.359Z,30.9
2022-08-11T12:11:36.364Z,31
2022-08-11T12:12:37.723Z,31
2022-08-11T12:13:39.023Z,31.1
2022-08-11T12:14:40.645Z,31.1
2022-08-11T12:16:37.181Z,31.1
2022-08-11T12:17:40.422Z,31.1
2022-08-11T12:18:43.240Z,31.1
2022-08-11T12:19:49.560Z,30.9
2022-08-11T12:20:52.095Z,30.9
2022-08-11T12:22:01.792Z,30.8
2022-08-11T12:23:03.055Z,30.8
2022-08-11T12:24:05.585Z,30.8
2022-08-11T12:25:06.847Z,30.8
2022-08-11T12:26:28.802Z,30.8
2022-08-11T12:27:31.308Z,30.9
2022-08-11T12:28:32.325Z,30.9
2022-08-11T12:29:33.901Z,31
2022-08-11T12:30:36.501Z,31
2022-08-11T12:31:38.322Z,30.9
2022-08-11T12:32:40.842Z,30.9
2022-08-11T12:33:42.964Z,30.9
2022-08-11T12:34:44.368Z,30.8
2022-08-11T12:36:02.198Z,30.7
2022-08-11T12:37:03.699Z,30.6
2022-08-11T12:38:13.744Z,30.6
2022-08-11T12:41:16.893Z,30.5
2022-08-11T12:42:20.589Z,30.7
2022-08-11T12:43:40.305Z,30.8
2022-08-11T12:44:41.980Z,30.9
2022-08-11T12:45:43.241Z,31
2022-08-11T12:46:45.049Z,31
2022-08-11T12:49:04.076Z,31.1
2022-08-11T12:50:24.151Z,31.3
2022-08-11T12:51:25.462Z,31.5
2022-08-11T12:52:26.739Z,31.5
2022-08-11T12:53:31.249Z,31.7
2022-08-11T12:54:32.793Z,31.8
2022-08-11T12:55:35.155Z,31.9
2022-08-11T12:56:37.324Z,31.9
2022-08-11T12:57:39.960Z,32
2022-08-11T12:58:41.663Z,32
2022-08-11T12:59:43.214Z,32.1
2022-08-11T13:00:45.453Z,32.1
2022-08-11T13:01:47.367Z,32.2
2022-08-11T13:02:48.640Z,32.3
2022-08-11T13:03:57.694Z,32.3
2022-08-11T13:05:03.333Z,32.4
2022-08-11T13:06:06.261Z,32.3
2022-08-11T13:07:07.612Z,32.2
2022-08-11T13:08:08.853Z,32.2
2022-08-11T13:09:10.164Z,32.1
2022-08-11T13:10:18.483Z,31.9
2022-08-11T13:11:19.953Z,31.8
2022-08-11T13:12:21.290Z,31.7
2022-08-11T13:13:58.264Z,31.5
2022-08-11T13:15:00.055Z,31.3
2022-08-11T13:16:03.064Z,31.2
2022-08-11T13:17:04.879Z,31.2
2022-08-11T13:18:06.430Z,31.2
2022-08-11T13:19:08.002Z,31.3
2022-08-11T13:20:08.949Z,31.4
2022-08-11T13:21:09.941Z,31.4
2022-08-11T13:22:11.212Z,31.5
2022-08-11T13:23:12.261Z,31.5
2022-08-11T13:24:13.845Z,31.6
2022-08-11T13:25:15.862Z,31.7
2022-08-11T13:26:16.869Z,31.7
2022-08-11T13:27:44.571Z,31.7
2022-08-11T13:28:46.254Z,31.7
2022-08-11T13:29:47.527Z,31.8
2022-08-11T13:30:48.561Z,31.8
2022-08-11T13:31:49.580Z,31.8
2022-08-11T13:32:50.853Z,31.8
2022-08-11T13:33:52.815Z,31.8
2022-08-11T13:34:53.902Z,31.8
2022-08-11T13:35:55.167Z,31.8
2022-08-11T13:36:56.182Z,31.8
2022-08-11T13:38:28.883Z,31.8
2022-08-11T13:39:31.485Z,31.8
2022-08-11T13:40:56.759Z,31.7
2022-08-11T13:41:57.821Z,31.7
2022-08-11T13:42:59.082Z,31.7
2022-08-11T13:44:03.807Z,31.7
2022-08-11T13:45:04.833Z,31.6
2022-08-11T13:46:06.394Z,31.6
2022-08-11T13:47:07.946Z,31.6
2022-08-11T13:48:09.747Z,31.6
2022-08-11T13:49:10.735Z,31.6
2022-08-11T13:50:14.679Z,31.5
2022-08-11T13:51:16.191Z,31.5
2022-08-11T13:52:17.477Z,31.5
2022-08-11T13:53:19.028Z,31.5
2022-08-11T13:54:20.860Z,31.5
2022-08-11T13:55:53.339Z,31.5
2022-08-11T13:56:54.634Z,31.4
2022-08-11T13:58:41.558Z,31.3
2022-08-11T13:59:58.862Z,31.3
2022-08-11T14:02:31.710Z,31.2
2022-08-11T14:04:32.852Z,31.2
2022-08-11T14:05:34.957Z,31.2
2022-08-11T14:06:36.770Z,31.2
2022-08-11T14:07:39.811Z,31.1
2022-08-11T14:08:47.966Z,31.1
2022-08-11T14:09:57.602Z,31.1
2022-08-11T14:10:59.110Z,31.1
2022-08-11T14:12:25.018Z,31.1
2022-08-11T14:13:26.519Z,31.1
2022-08-11T14:14:28.043Z,31
2022-08-11T14:15:29.817Z,31
2022-08-11T14:16:31.085Z,31
2022-08-11T14:17:49.873Z,31
2022-08-11T14:18:52.770Z,31
2022-08-11T14:19:54.332Z,30.9
2022-08-11T14:20:55.612Z,30.9
2022-08-11T14:21:56.866Z,30.8
2022-08-11T14:22:57.983Z,30.8
2022-08-11T14:24:02.101Z,30.8
2022-08-11T14:25:03.942Z,30.8
2022-08-11T14:26:04.937Z,30.8
2022-08-11T14:27:06.226Z,30.8
2022-08-11T14:28:46.586Z,30.8
2022-08-11T14:29:50.249Z,30.7
2022-08-11T14:30:53.127Z,30.6
2022-08-11T14:32:03.282Z,30.7
2022-08-11T14:33:21.754Z,30.6
2022-08-11T14:34:23.033Z,30.6
2022-08-11T14:35:24.054Z,30.6
2022-08-11T14:36:25.973Z,30.6
2022-08-11T14:37:28.193Z,30.6
2022-08-11T14:38:29.223Z,30.6
2022-08-11T14:39:33.775Z,30.7
2022-08-11T14:40:35.704Z,30.7
2022-08-11T14:41:36.673Z,30.7
2022-08-11T14:43:11.336Z,30.6